createdAt,value
2023-03-17T00:01:01.078Z,97480.41
2023-03-17T00:03:27.427Z,97485.91
2023-03-17T00:05:54.099Z,97494.59
2023-03-17T00:08:20.411Z,97480.41
2023-03-17T00:10:46.698Z,97487.28
2023-03-17T00:13:13.268Z,97479.78
2023-03-17T00:15:39.570Z,97469.31
2023-03-17T00:18:05.894Z,97482.03
2023-03-17T00:20:32.510Z,97473.19
2023-03-17T00:22:58.916Z,97463.25
2023-03-17T00:25:25.345Z,97464.75
2023-03-17T00:27:51.683Z,97460.16
2023-03-17T00:30:17.980Z,97457.19
2023-03-17T00:32:44.391Z,97454.44
2023-03-17T00:35:10.731Z,97449.88
2023-03-17T00:37:36.994Z,97453.78
2023-03-17T00:40:03.293Z,97443.91
2023-03-17T00:42:29.600Z,97454.97
2023-03-17T00:44:56.270Z,97449.59
2023-03-17T00:47:23.381Z,97455.38
2023-03-17T00:49:49.782Z,97460.38
2023-03-17T00:52:16.282Z,97461.88
2023-03-17T00:54:42.703Z,97452.56
2023-03-17T00:57:09.015Z,97447.16
2023-03-17T00:59:35.344Z,97444.16
2023-03-17T01:02:01.735Z,97442.22
2023-03-17T01:04:28.131Z,97445.34
2023-03-17T01:06:54.468Z,97453.00
2023-03-17T01:09:20.994Z,97455.31
2023-03-17T01:11:47.318Z,97452.31
2023-03-17T01:14:13.872Z,97443.22
2023-03-17T01:16:40.224Z,97451.91
2023-03-17T01:19:06.550Z,97450.75
2023-03-17T01:21:32.965Z,97449.59
2023-03-17T01:23:59.285Z,97457.69
2023-03-17T01:26:26.145Z,97445.88
2023-03-17T01:28:52.498Z,97442.41
2023-03-17T01:31:19.025Z,97430.66
2023-03-17T01:33:45.337Z,97422.59
2023-03-17T01:36:11.875Z,97419.03
2023-03-17T01:38:38.214Z,97423.44
2023-03-17T01:41:04.571Z,97415.13
2023-03-17T01:43:30.945Z,97420.31
2023-03-17T01:45:57.586Z,97422.63
2023-03-17T01:48:24.177Z,97419.88
2023-03-17T01:50:50.497Z,97416.06
2023-03-17T01:53:16.929Z,97419.22
2023-03-17T01:55:43.234Z,97416.78
2023-03-17T01:58:09.613Z,97401.09
2023-03-17T02:00:36.009Z,97405.84
2023-03-17T02:03:02.404Z,97402.63
2023-03-17T02:05:28.751Z,97402.03
2023-03-17T02:07:55.124Z,97405.16
2023-03-17T02:10:21.508Z,97395.81
2023-03-17T02:12:47.883Z,97397.09
2023-03-17T02:15:14.278Z,97402.66
2023-03-17T02:17:40.608Z,97397.78
2023-03-17T02:20:06.985Z,97400.91
2023-03-17T02:22:33.296Z,97393.19
2023-03-17T02:24:59.546Z,97388.38
2023-03-17T02:27:25.969Z,97390.44
2023-03-17T02:29:52.312Z,97383.75
2023-03-17T02:32:18.623Z,97387.69
2023-03-17T02:34:45.481Z,97395.06
2023-03-17T02:37:11.799Z,97385.72
2023-03-17T02:39:38.152Z,97378.00
2023-03-17T02:42:04.570Z,97389.91
2023-03-17T02:44:30.971Z,97377.06
2023-03-17T02:46:57.275Z,97377.31
2023-03-17T02:49:23.603Z,97374.09
2023-03-17T02:51:50.043Z,97376.97
2023-03-17T02:54:16.297Z,97383.56
2023-03-17T02:56:42.940Z,97390.13
2023-03-17T02:59:09.292Z,97378.94
2023-03-17T03:01:35.679Z,97381.81
2023-03-17T03:04:02.018Z,97375.94
2023-03-17T03:06:28.326Z,97380.44
2023-03-17T03:08:54.791Z,97374.56
2023-03-17T03:11:21.105Z,97375.59
2023-03-17T03:13:47.459Z,97371.59
2023-03-17T03:16:13.866Z,97373.66
2023-03-17T03:18:40.335Z,97375.72
2023-03-17T03:21:06.662Z,97378.59
2023-03-17T03:23:33.010Z,97378.84
2023-03-17T03:26:01.353Z,97374.56
2023-03-17T03:28:27.682Z,97381.94
2023-03-17T03:30:54.243Z,97381.38
2023-03-17T03:33:20.667Z,97379.16
2023-03-17T03:35:47.031Z,97388.16
2023-03-17T03:38:13.361Z,97384.94
2023-03-17T03:40:39.623Z,97386.19
2023-03-17T03:43:19.910Z,97378.47
2023-03-17T03:45:48.029Z,97385.06
2023-03-17T03:48:14.533Z,97392.41
2023-03-17T03:50:40.834Z,97392.63
2023-03-17T03:53:07.185Z,97379.03
2023-03-17T03:55:38.261Z,97374.19
2023-03-17T03:58:04.741Z,97375.44
2023-03-17T04:00:31.247Z,97374.88
2023-03-17T04:02:57.848Z,97376.94
2023-03-17T04:05:24.181Z,97365.75
2023-03-17T04:07:50.627Z,97367.84
2023-03-17T04:10:16.953Z,97361.38
2023-03-17T04:12:43.504Z,97355.50
2023-03-17T04:15:09.946Z,97351.25
2023-03-17T04:17:36.282Z,97357.00
2023-03-17T04:20:02.647Z,97352.97
2023-03-17T04:22:29.001Z,97348.13
2023-03-17T04:24:55.378Z,97340.41
2023-03-17T04:27:21.708Z,97329.44
2023-03-17T04:29:48.039Z,97329.69
2023-03-17T04:32:14.298Z,97329.09
2023-03-17T04:34:40.651Z,97319.78
2023-03-17T04:37:07.047Z,97331.63
2023-03-17T04:39:33.520Z,97332.69
2023-03-17T04:41:59.882Z,97340.03
2023-03-17T04:44:26.210Z,97353.72
2023-03-17T04:46:52.627Z,97343.59
2023-03-17T04:49:18.952Z,97343.03
2023-03-17T04:51:45.456Z,97332.63
2023-03-17T04:54:11.797Z,97340.81
2023-03-17T04:56:38.566Z,97328.03
2023-03-17T04:59:05.070Z,97326.66
2023-03-17T05:01:31.419Z,97321.00
2023-03-17T05:04:03.589Z,97326.50
2023-03-17T05:06:29.928Z,97325.13
2023-03-17T05:08:56.378Z,97332.50
2023-03-17T05:11:22.746Z,97349.63
2023-03-17T05:13:49.122Z,97329.72
2023-03-17T05:16:15.436Z,97329.94
2023-03-17T05:18:41.778Z,97346.06
2023-03-17T05:21:08.201Z,97342.00
2023-03-17T05:23:34.663Z,97344.88
2023-03-17T05:26:00.994Z,97349.34
2023-03-17T05:28:27.459Z,97352.22
2023-03-17T05:30:53.814Z,97353.28
2023-03-17T05:33:20.282Z,97343.13
2023-03-17T05:35:46.850Z,97323.00
2023-03-17T05:38:13.212Z,97328.53
2023-03-17T05:40:39.550Z,97330.56
2023-03-17T05:43:05.923Z,97333.44
2023-03-17T05:45:32.380Z,97338.75
2023-03-17T05:47:58.649Z,97348.75
2023-03-17T05:50:27.875Z,97351.59
2023-03-17T05:52:54.535Z,97340.22
2023-03-17T05:55:23.194Z,97341.25
2023-03-17T05:57:50.134Z,97351.03
2023-03-17T06:00:16.441Z,97351.59
2023-03-17T06:02:42.848Z,97351.75
2023-03-17T06:05:09.169Z,97349.13
2023-03-17T06:07:50.934Z,97350.75
2023-03-17T06:10:18.276Z,97343.06
2023-03-17T06:12:44.649Z,97345.38
2023-03-17T06:15:11.010Z,97335.97
2023-03-17T06:17:37.862Z,97333.69
2023-03-17T06:20:04.175Z,97342.47
2023-03-17T06:22:30.480Z,97342.22
2023-03-17T06:24:57.040Z,97342.94
2023-03-17T06:27:23.396Z,97329.13
2023-03-17T06:29:49.991Z,97326.63
2023-03-17T06:32:20.635Z,97317.03
2023-03-17T06:34:47.450Z,97314.88
2023-03-17T06:37:13.739Z,97309.75
2023-03-17T06:39:40.004Z,97310.09
2023-03-17T06:42:06.502Z,97313.19
2023-03-17T06:44:32.993Z,97315.44
2023-03-17T06:46:59.299Z,97317.41
2023-03-17T06:49:25.620Z,97325.94
2023-03-17T06:51:52.010Z,97322.41
2023-03-17T06:54:18.614Z,97322.03
2023-03-17T06:56:44.970Z,97320.13
2023-03-17T06:59:11.309Z,97327.41
2023-03-17T07:01:37.676Z,97322.03
2023-03-17T07:04:04.093Z,97328.44
2023-03-17T07:06:30.378Z,97323.47
2023-03-17T07:08:56.705Z,97327.50
2023-03-17T07:11:23.034Z,97332.78
2023-03-17T07:13:49.402Z,97335.44
2023-03-17T07:16:15.822Z,97331.75
2023-03-17T07:18:42.235Z,97337.53
2023-03-17T07:21:08.567Z,97334.84
2023-03-17T07:23:34.978Z,97337.44
2023-03-17T07:26:01.486Z,97341.03
2023-03-17T07:28:27.871Z,97351.38
2023-03-17T07:30:54.253Z,97359.19
2023-03-17T07:33:20.588Z,97359.28
2023-03-17T07:35:47.029Z,97357.78
2023-03-17T07:38:13.421Z,97368.81
2023-03-17T07:40:39.768Z,97356.38
2023-03-17T07:43:06.288Z,97348.66
2023-03-17T07:45:32.928Z,97346.25
2023-03-17T07:47:59.577Z,97334.50
2023-03-17T07:50:25.901Z,97343.34
2023-03-17T07:52:52.269Z,97339.09
2023-03-17T07:55:22.543Z,97343.38
2023-03-17T07:57:48.932Z,97337.97
2023-03-17T08:00:15.300Z,97334.19
2023-03-17T08:02:41.712Z,97332.31
2023-03-17T08:05:08.269Z,97336.78
2023-03-17T08:07:34.765Z,97335.94
2023-03-17T08:10:01.094Z,97331.28
2023-03-17T08:12:27.361Z,97324.50
2023-03-17T08:14:53.651Z,97323.03
2023-03-17T08:17:19.941Z,97318.13
2023-03-17T08:19:46.267Z,97307.78
2023-03-17T08:22:12.614Z,97308.06
2023-03-17T08:24:38.948Z,97307.84
2023-03-17T08:27:05.331Z,97310.75
2023-03-17T08:29:31.850Z,97323.53
2023-03-17T08:31:58.187Z,97323.44
2023-03-17T08:34:24.650Z,97329.56
2023-03-17T08:36:51.175Z,97332.97
2023-03-17T08:39:17.690Z,97321.88
2023-03-17T08:41:44.914Z,97322.13
2023-03-17T08:44:11.360Z,97321.56
2023-03-17T08:46:37.657Z,97317.31
2023-03-17T08:49:04.139Z,97302.50
2023-03-17T08:51:30.679Z,97305.22
2023-03-17T08:53:57.035Z,97297.41
2023-03-17T08:56:23.421Z,97290.06
2023-03-17T08:58:49.788Z,97284.78
2023-03-17T09:01:16.124Z,97265.03
2023-03-17T09:03:42.559Z,97264.38
2023-03-17T09:06:08.871Z,97274.94
2023-03-17T09:08:35.633Z,97259.03
2023-03-17T09:11:01.976Z,97264.84
2023-03-17T09:13:28.329Z,97255.91
2023-03-17T09:15:54.706Z,97256.72
2023-03-17T09:18:22.190Z,97256.19
2023-03-17T09:20:48.607Z,97258.22
2023-03-17T09:23:14.905Z,97242.91
2023-03-17T09:25:41.312Z,97240.16
2023-03-17T09:28:07.779Z,97240.28
2023-03-17T09:30:34.242Z,97239.84
2023-03-17T09:33:00.720Z,97243.41
2023-03-17T09:35:27.131Z,97247.16
2023-03-17T09:37:53.484Z,97248.75
2023-03-17T09:40:19.789Z,97241.19
2023-03-17T09:42:46.126Z,97243.09
2023-03-17T09:45:12.404Z,97249.25
2023-03-17T09:47:40.077Z,97242.00
2023-03-17T09:50:07.330Z,97235.28
2023-03-17T09:52:33.735Z,97233.09
2023-03-17T09:55:00.100Z,97237.38
2023-03-17T09:57:26.481Z,97241.16
2023-03-17T09:59:52.827Z,97242.75
2023-03-17T10:02:19.417Z,97250.81
2023-03-17T10:04:45.980Z,97257.50
2023-03-17T10:07:12.428Z,97251.56
2023-03-17T10:09:39.393Z,97247.75
2023-03-17T10:12:05.743Z,97239.41
2023-03-17T10:14:32.168Z,97232.97
2023-03-17T10:16:58.509Z,97244.25
2023-03-17T10:19:24.793Z,97231.28
2023-03-17T10:21:51.179Z,97227.53
2023-03-17T10:24:17.458Z,97226.16
2023-03-17T10:26:43.861Z,97222.69
2023-03-17T10:29:10.368Z,97210.84
2023-03-17T10:31:36.850Z,97218.31
2023-03-17T10:34:03.230Z,97224.72
2023-03-17T10:36:29.576Z,97210.25
2023-03-17T10:38:55.890Z,97225.28
2023-03-17T10:41:22.207Z,97217.47
2023-03-17T10:43:48.674Z,97223.88
2023-03-17T10:46:14.941Z,97210.44
2023-03-17T10:48:41.232Z,97210.69
2023-03-17T10:51:07.687Z,97217.38
2023-03-17T10:53:33.971Z,97217.91
2023-03-17T10:56:00.421Z,97208.22
2023-03-17T10:58:26.728Z,97214.91
2023-03-17T11:00:53.097Z,97205.28
2023-03-17T11:03:19.449Z,97206.84
2023-03-17T11:05:45.973Z,97213.81
2023-03-17T11:08:12.653Z,97216.50
2023-03-17T11:10:39.300Z,97214.63
2023-03-17T11:13:05.618Z,97213.81
2023-03-17T11:15:31.928Z,97204.16
2023-03-17T11:17:58.308Z,97207.38
2023-03-17T11:20:24.627Z,97205.47
2023-03-17T11:22:51.000Z,97196.19
2023-03-17T11:25:17.331Z,97202.00
2023-03-17T11:27:43.697Z,97212.75
2023-03-17T11:30:10.102Z,97210.06
2023-03-17T11:32:36.606Z,97210.34
2023-03-17T11:35:03.044Z,97209.53
2023-03-17T11:37:29.367Z,97216.78
2023-03-17T11:39:55.744Z,97204.16
2023-03-17T11:42:22.094Z,97210.34
2023-03-17T11:44:48.376Z,97202.59
2023-03-17T11:47:14.882Z,97200.69
2023-03-17T11:49:41.431Z,97199.09
2023-03-17T11:52:07.849Z,97194.00
2023-03-17T11:54:35.421Z,97191.63
2023-03-17T11:57:01.773Z,97190.00
2023-03-17T11:59:28.194Z,97194.09
2023-03-17T12:01:54.651Z,97202.16
2023-03-17T12:04:20.993Z,97196.59
2023-03-17T12:06:47.414Z,97195.44
2023-03-17T12:09:13.853Z,97192.63
2023-03-17T12:11:40.145Z,97184.97
2023-03-17T12:14:06.461Z,97166.81
2023-03-17T12:16:32.786Z,97178.41
2023-03-17T12:18:59.173Z,97171.28
2023-03-17T12:21:25.507Z,97171.13
2023-03-17T12:23:51.775Z,97173.09
2023-03-17T12:26:18.116Z,97165.13
2023-03-17T12:28:44.427Z,97165.47
2023-03-17T12:31:10.860Z,97168.22
2023-03-17T12:33:37.309Z,97164.75
2023-03-17T12:36:03.757Z,97161.31
2023-03-17T12:38:30.121Z,97163.25
2023-03-17T12:40:56.527Z,97163.03
2023-03-17T12:43:22.813Z,97167.09
2023-03-17T12:45:49.221Z,97154.31
2023-03-17T12:48:15.481Z,97165.91
2023-03-17T12:50:41.794Z,97165.72
2023-03-17T12:53:08.160Z,97166.03
2023-03-17T12:55:34.587Z,97165.28
2023-03-17T12:58:00.998Z,97160.72
2023-03-17T13:00:27.442Z,97165.59
2023-03-17T13:02:53.934Z,97166.13
2023-03-17T13:05:20.323Z,97166.94
2023-03-17T13:07:46.690Z,97165.84
2023-03-17T13:10:13.097Z,97176.84
2023-03-17T13:12:39.395Z,97159.75
2023-03-17T13:15:05.745Z,97160.00
2023-03-17T13:17:32.218Z,97159.50
2023-03-17T13:19:58.589Z,97153.59
2023-03-17T13:22:24.935Z,97160.00
2023-03-17T13:24:51.318Z,97152.25
2023-03-17T13:27:17.946Z,97149.59
2023-03-17T13:29:44.246Z,97148.56
2023-03-17T13:32:10.556Z,97147.25
2023-03-17T13:34:36.915Z,97129.84
2023-03-17T13:37:03.474Z,97128.00
2023-03-17T13:39:30.642Z,97128.56
2023-03-17T13:41:59.281Z,97118.97
2023-03-17T13:44:27.390Z,97125.41
2023-03-17T13:46:53.846Z,97124.38
2023-03-17T13:49:20.525Z,97131.56
2023-03-17T13:51:59.080Z,97133.94
2023-03-17T13:54:26.446Z,97141.84
2023-03-17T13:56:52.779Z,97131.06
2023-03-17T13:59:19.268Z,97126.75
2023-03-17T14:01:45.758Z,97115.44
2023-03-17T14:04:12.155Z,97115.91
2023-03-17T14:06:38.492Z,97105.16
2023-03-17T14:09:04.967Z,97113.44
2023-03-17T14:11:31.333Z,97113.94
2023-03-17T14:13:57.632Z,97110.22
2023-03-17T14:16:24.031Z,97102.94
2023-03-17T14:18:50.584Z,97106.94
2023-03-17T14:21:17.109Z,97090.88
2023-03-17T14:23:43.497Z,97097.03
2023-03-17T14:26:09.930Z,97100.25
2023-03-17T14:28:36.332Z,97104.50
2023-03-17T14:31:03.025Z,97106.63
2023-03-17T14:33:30.160Z,97099.91
2023-03-17T14:35:56.620Z,97088.91
2023-03-17T14:38:23.015Z,97086.75
2023-03-17T14:40:49.443Z,97086.75
2023-03-17T14:43:15.880Z,97086.44
2023-03-17T14:45:42.252Z,97088.84
2023-03-17T14:48:08.748Z,97081.63
2023-03-17T14:50:35.122Z,97085.88
2023-03-17T14:53:01.482Z,97086.69
2023-03-17T14:55:27.815Z,97082.91
2023-03-17T14:57:54.512Z,97087.22
2023-03-17T15:00:20.893Z,97084.25
2023-03-17T15:02:47.275Z,97085.03
2023-03-17T15:05:13.955Z,97070.56
2023-03-17T15:07:40.670Z,97070.56
2023-03-17T15:10:07.199Z,97051.78
2023-03-17T15:12:33.542Z,97059.81
2023-03-17T15:14:59.879Z,97064.38
2023-03-17T15:17:26.418Z,97070.56
2023-03-17T15:19:55.770Z,97075.09
2023-03-17T15:22:22.065Z,97066.28
2023-03-17T15:24:48.431Z,97066.53
2023-03-17T15:27:14.738Z,97067.63
2023-03-17T15:29:41.117Z,97073.00
2023-03-17T15:32:07.487Z,97082.13
2023-03-17T15:34:34.470Z,97078.66
2023-03-17T15:37:00.755Z,97069.78
2023-03-17T15:39:27.215Z,97074.34
2023-03-17T15:41:53.536Z,97071.66
2023-03-17T15:44:19.862Z,97066.88
2023-03-17T15:46:46.168Z,97060.72
2023-03-17T15:49:12.497Z,97059.94
2023-03-17T15:51:38.864Z,97071.72
2023-03-17T15:54:05.212Z,97063.19
2023-03-17T15:56:31.602Z,97067.75
2023-03-17T15:58:57.904Z,97059.19
2023-03-17T16:01:27.666Z,97066.41
2023-03-17T16:03:54.275Z,97065.91
2023-03-17T16:06:20.620Z,97063.50
2023-03-17T16:08:46.931Z,97066.47
2023-03-17T16:11:13.298Z,97059.53
2023-03-17T16:13:39.607Z,97061.69
2023-03-17T16:16:06.035Z,97060.88
2023-03-17T16:18:32.352Z,97063.84
2023-03-17T16:20:58.629Z,97066.81
2023-03-17T16:23:24.991Z,97059.84
2023-03-17T16:25:52.646Z,97064.41
2023-03-17T16:28:20.295Z,97066.28
2023-03-17T16:30:46.702Z,97069.78
2023-03-17T16:33:13.021Z,97072.44
2023-03-17T16:35:39.458Z,97065.47
2023-03-17T16:38:05.774Z,97063.59
2023-03-17T16:40:35.152Z,97068.16
2023-03-17T16:43:01.467Z,97057.44
2023-03-17T16:45:27.783Z,97055.84
2023-03-17T16:47:55.218Z,97045.94
2023-03-17T16:50:21.521Z,97061.22
2023-03-17T16:52:47.844Z,97058.81
2023-03-17T16:55:14.211Z,97059.59
2023-03-17T16:57:40.614Z,97070.31
2023-03-17T17:00:07.075Z,97072.22
2023-03-17T17:02:33.421Z,97074.91
2023-03-17T17:04:59.766Z,97074.09
2023-03-17T17:07:26.125Z,97070.59
2023-03-17T17:09:52.444Z,97078.63
2023-03-17T17:12:18.790Z,97080.53
2023-03-17T17:14:45.120Z,97070.06
2023-03-17T17:17:11.478Z,97070.06
2023-03-17T17:19:37.833Z,97079.22
2023-03-17T17:22:04.220Z,97075.19
2023-03-17T17:24:30.753Z,97078.97
2023-03-17T17:26:57.056Z,97080.06
2023-03-17T17:29:23.560Z,97082.22
2023-03-17T17:31:49.861Z,97084.09
2023-03-17T17:34:16.450Z,97086.25
2023-03-17T17:36:42.731Z,97090.81
2023-03-17T17:39:09.179Z,97086.00
2023-03-17T17:41:35.593Z,97084.41
2023-03-17T17:44:01.983Z,97083.09
2023-03-17T17:46:28.434Z,97095.19
2023-03-17T17:48:54.875Z,97100.53
2023-03-17T17:51:21.274Z,97098.41
2023-03-17T17:53:47.713Z,97104.03
2023-03-17T17:56:14.091Z,97096.25
2023-03-17T17:58:40.467Z,97095.72
2023-03-17T18:01:06.833Z,97098.69
2023-03-17T18:03:33.219Z,97094.44
2023-03-17T18:05:59.527Z,97100.06
2023-03-17T18:08:25.931Z,97090.69
2023-03-17T18:10:52.510Z,97097.44
2023-03-17T18:13:19.773Z,97096.63
2023-03-17T18:15:46.089Z,97099.56
2023-03-17T18:18:12.454Z,97107.91
2023-03-17T18:20:38.816Z,97108.16
2023-03-17T18:23:05.153Z,97107.66
2023-03-17T18:25:31.526Z,97111.38
2023-03-17T18:27:57.883Z,97108.19
2023-03-17T18:30:24.184Z,97114.63
2023-03-17T18:32:50.535Z,97123.22
2023-03-17T18:35:16.877Z,97123.22
2023-03-17T18:37:43.254Z,97125.38
2023-03-17T18:40:14.600Z,97123.75
2023-03-17T18:42:41.844Z,97125.91
2023-03-17T18:45:08.206Z,97116.28
2023-03-17T18:47:34.606Z,97112.03
2023-03-17T18:50:01.274Z,97105.84
2023-03-17T18:52:27.667Z,97103.47
2023-03-17T18:54:54.108Z,97098.09
2023-03-17T18:57:20.423Z,97102.66
2023-03-17T18:59:46.801Z,97098.09
2023-03-17T19:02:13.135Z,97095.72
2023-03-17T19:04:41.537Z,97092.22
2023-03-17T19:07:07.857Z,97093.28
2023-03-17T19:09:34.192Z,97091.13
2023-03-17T19:12:00.579Z,97093.53
2023-03-17T19:14:32.998Z,97085.25
2023-03-17T19:16:59.406Z,97086.84
2023-03-17T19:19:29.554Z,97096.22
2023-03-17T19:24:48.543Z,97108.47
2023-03-17T19:27:17.961Z,97112.47
2023-03-17T19:29:44.455Z,97107.66
2023-03-17T19:32:11.408Z,97108.16
2023-03-17T19:34:38.029Z,97114.84
2023-03-17T19:37:04.369Z,97112.97
2023-03-17T19:39:30.668Z,97111.06
2023-03-17T19:41:56.933Z,97111.88
2023-03-17T19:44:23.230Z,97110.81
2023-03-17T19:46:49.663Z,97112.41
2023-03-17T19:49:16.002Z,97116.16
2023-03-17T19:51:42.347Z,97114.28
2023-03-17T19:54:08.766Z,97124.19
2023-03-17T19:56:35.100Z,97116.16
2023-03-17T19:59:01.416Z,97118.03
2023-03-17T20:01:28.042Z,97116.41
2023-03-17T20:03:54.462Z,97122.88
2023-03-17T20:06:20.873Z,97118.31
2023-03-17T20:08:47.278Z,97122.06
2023-03-17T20:11:13.532Z,97117.78
2023-03-17T20:13:39.830Z,97120.75
2023-03-17T20:16:06.256Z,97116.47
2023-03-17T20:18:32.678Z,97112.19
2023-03-17T20:20:59.139Z,97116.75
2023-03-17T20:23:25.773Z,97109.81
2023-03-17T20:25:52.164Z,97105.50
2023-03-17T20:28:18.657Z,97106.59
2023-03-17T20:30:45.082Z,97100.44
2023-03-17T20:33:11.495Z,97094.56
2023-03-17T20:35:37.809Z,97100.72
2023-03-17T20:38:04.093Z,97106.34
2023-03-17T20:40:30.644Z,97101.28
2023-03-17T20:42:57.231Z,97109.31
2023-03-17T20:45:23.588Z,97113.03
2023-03-17T20:47:49.947Z,97111.47
2023-03-17T20:50:16.302Z,97109.84
2023-03-17T20:52:42.756Z,97106.38
2023-03-17T20:55:09.091Z,97108.25
2023-03-17T20:57:35.602Z,97112.81
2023-03-17T21:00:02.322Z,97114.16
2023-03-17T21:02:28.886Z,97108.00
2023-03-17T21:04:55.237Z,97106.41
2023-03-17T21:07:21.637Z,97101.06
2023-03-17T21:09:48.099Z,97099.44
2023-03-17T21:15:06.621Z,97093.56
2023-03-17T21:17:33.097Z,97094.66
2023-03-17T21:19:59.477Z,97096.53
2023-03-17T21:22:25.746Z,97095.22
2023-03-17T21:24:52.074Z,97092.53
2023-03-17T21:27:18.345Z,97094.41
2023-03-17T21:29:44.622Z,97090.94
2023-03-17T21:32:10.890Z,97087.72
2023-03-17T21:34:37.170Z,97097.66
2023-03-17T21:37:03.480Z,97101.38
2023-03-17T21:39:29.948Z,97097.94
2023-03-17T21:41:56.425Z,97094.44
2023-03-17T21:44:22.816Z,97090.16
2023-03-17T21:46:49.102Z,97095.50
2023-03-17T21:49:15.704Z,97100.06
2023-03-17T21:51:42.093Z,97097.69
2023-03-17T21:54:08.375Z,97098.75
2023-03-17T21:56:35.087Z,97099.53
2023-03-17T21:59:01.402Z,97101.41
2023-03-17T22:01:27.766Z,97100.59
2023-03-17T22:03:54.204Z,97097.16
2023-03-17T22:06:20.512Z,97091.00
2023-03-17T22:08:46.773Z,97106.25
2023-03-17T22:11:13.784Z,97108.91
2023-03-17T22:13:40.119Z,97108.91
2023-03-17T22:16:06.569Z,97121.50
2023-03-17T22:18:33.080Z,97118.84
2023-03-17T22:20:59.517Z,97123.38
2023-03-17T22:23:25.892Z,97119.09
2023-03-17T22:25:52.695Z,97125.25
2023-03-17T22:28:19.016Z,97127.13
2023-03-17T22:30:45.329Z,97127.13
2023-03-17T22:33:11.978Z,97140.78
2023-03-17T22:35:38.493Z,97137.31
2023-03-17T22:38:05.060Z,97131.97
2023-03-17T22:40:31.834Z,97139.19
2023-03-17T22:42:58.448Z,97123.41
2023-03-17T22:45:24.872Z,97130.63
2023-03-17T22:47:51.391Z,97126.09
2023-03-17T22:50:17.883Z,97127.94
2023-03-17T22:52:44.196Z,97127.16
2023-03-17T22:55:10.682Z,97134.38
2023-03-17T22:57:37.203Z,97130.38
2023-03-17T23:00:03.783Z,97134.66
2023-03-17T23:02:30.160Z,97128.03
2023-03-17T23:04:56.563Z,97136.28
2023-03-17T23:07:22.883Z,97125.09
2023-03-17T23:09:49.297Z,97118.16
2023-03-17T23:12:15.687Z,97117.91
2023-03-17T23:14:42.078Z,97123.56
2023-03-17T23:17:08.431Z,97133.19
2023-03-17T23:19:34.831Z,97127.03
2023-03-17T23:22:01.148Z,97124.09
2023-03-17T23:24:27.463Z,97129.19
2023-03-17T23:26:53.796Z,97127.34
2023-03-17T23:29:20.119Z,97139.63
2023-03-17T23:31:46.442Z,97135.13
2023-03-17T23:34:12.864Z,97142.88
2023-03-17T23:36:39.272Z,97136.19
2023-03-17T23:39:05.576Z,97138.06
2023-03-17T23:41:31.920Z,97137.78
2023-03-17T23:43:58.178Z,97136.75
2023-03-17T23:46:24.595Z,97132.72
2023-03-17T23:48:50.939Z,97128.19
2023-03-17T23:51:17.615Z,97123.38
2023-03-17T23:53:43.940Z,97132.97
2023-03-17T23:56:10.224Z,97135.91
2023-03-17T23:58:36.843Z,97134.84
